Terminal Aerodrome Forecast
Issued by NWS Sioux Falls, SD

Home | Current Version | Previous Version | Text Only | Print | Product List | Glossary Off
Versions: 1 2 3 4 5 6 7 8 9 10 11 12 13 14 15

777
FTUS43 KFSD 231720
TAFFSD
TAF
KFSD 231720Z 2318/2418 20016G23KT P6SM SCT250
     FM240100 18012KT P6SM SCT250
     FM240500 17013G21KT P6SM SCT200 WS011/19040KT
     FM240900 17014G23KT P6SM BKN200=

USA.gov is the U.S. government's official web portal to all federal, state and local government web resources and services.